Hlavní strana
METAR-TAF:

METAR-TAF

Letiště :

Caracas, Venezuela

zeměpisná šířka: 10-36N, zeměpisná délka: 066-59W, výška: 43 m

Aktuální stav počasí

Zpráva byla vytvořena před 30 minutami, v 05:00 UTC
Bezvětří
Teplota 25°C
Vlhkost vzduchu 94%
Tlak 1013 hPa
Viditelnost 10 km a více
Polojasno ve výšce 1600 ft

METAR: SVMI 210500Z 00000KT 9999 SCT016 25/24 Q1013

Čas: 01:30 (05:30 UTC)

Předpověď počasí

Zpráva byla vytvořena před 7 hodinami a 30 minutami, v 22:00 UTC
Předpověď platná od 21 v 00 UTC do 22 v 00 UTC
Východoseverovýchodní vítr 7 kt
Viditelnost 10 km a více
Skoro jasno ve výšce 1600 ft
Změna
od 21 v 00 UTC do 21 v 04 UTC
Severovýchodní vítr 5 kt
Viditelnost: 9000 m
Polojasno ve výšce 1600 ft
Polojasno ve výšce 9000 ft
mrholení

TAF: SVMI 202200Z 2100/2200 07007KT 9999 FEW016 TX31/18Z TN25/08Z BECMG 2100/2104 05005KT 9000 DZ SCT016 SCT090

Stav a předpovědi počasí z více než 4 000 letišť (zprávy METAR a TAF).

Červené a žluté tečky na mapě představují dostupné meteorologické stanice.

Když kurzor umístíte na tečku, zobrazí se název stanice.

Pak kliknutím zobrazíte stav a předpověď počasí.

Chcete-li změnit mapu, kliknutím na zelené tlačítko se znaménkem +mapu přiblížíte, kliknutím na zelené tlačítko se znaménkem – mapu oddálíte a kliknutím na zelené šipky přejdete na sousední mapy.


METAR-TAF: